createdAt,value
2018-06-01T00:01:22.456Z,12.65
2018-06-01T00:03:50.880Z,12.88
2018-06-01T00:06:19.235Z,12.63
2018-06-01T00:08:47.608Z,15.88
2018-06-01T00:11:16.003Z,17.77
2018-06-01T00:13:44.356Z,18.20
2018-06-01T00:16:12.723Z,17.48
2018-06-01T00:18:41.895Z,16.35
2018-06-01T00:21:10.335Z,16.92
2018-06-01T00:23:38.690Z,19.98
2018-06-01T00:26:07.866Z,17.83
2018-06-01T00:28:36.276Z,17.67
2018-06-01T00:31:04.691Z,18.12
2018-06-01T00:33:33.097Z,16.60
2018-06-01T00:36:01.453Z,19.85
2018-06-01T00:38:29.849Z,19.17
2018-06-01T00:40:58.209Z,18.23
2018-06-01T00:43:26.572Z,20.25
2018-06-01T00:45:54.992Z,20.00
2018-06-01T00:48:23.379Z,20.23
2018-06-01T00:50:52.498Z,19.30
2018-06-01T00:53:21.613Z,18.05
2018-06-01T00:55:50.054Z,18.45
2018-06-01T00:58:20.666Z,18.65
2018-06-01T01:00:49.039Z,19.90
2018-06-01T01:03:17.391Z,20.48
2018-06-01T01:05:46.181Z,19.95
2018-06-01T01:08:14.666Z,20.90
2018-06-01T01:10:43.147Z,19.75
2018-06-01T01:13:11.508Z,21.17
2018-06-01T01:15:40.221Z,21.08
2018-06-01T01:18:09.051Z,22.56
2018-06-01T01:20:38.238Z,20.15
2018-06-01T01:23:06.685Z,20.27
2018-06-01T01:25:35.047Z,20.15
2018-06-01T01:28:04.147Z,20.00
2018-06-01T01:30:32.574Z,20.48
2018-06-01T01:33:00.947Z,20.65
2018-06-01T01:35:29.289Z,19.20
2018-06-01T01:37:57.972Z,19.30
2018-06-01T01:40:27.032Z,19.20
2018-06-01T01:42:55.413Z,17.37
2018-06-01T01:45:24.544Z,19.23
2018-06-01T01:47:52.963Z,19.55
2018-06-01T01:50:21.915Z,18.75
2018-06-01T01:52:50.288Z,18.40
2018-06-01T01:55:18.648Z,19.20
2018-06-01T01:57:47.229Z,19.42
2018-06-01T02:00:15.958Z,20.17
2018-06-01T02:02:44.369Z,20.48
2018-06-01T02:05:13.503Z,19.35
2018-06-01T02:07:41.874Z,19.35
2018-06-01T02:10:10.222Z,21.20
2018-06-01T02:12:38.681Z,23.17
2018-06-01T02:15:07.057Z,21.45
2018-06-01T02:17:35.402Z,22.30
2018-06-01T02:20:03.775Z,23.85
2018-06-01T02:22:33.086Z,23.80
2018-06-01T02:25:01.445Z,23.33
2018-06-01T02:27:29.795Z,21.95
2018-06-01T02:29:58.924Z,20.50
2018-06-01T02:32:27.372Z,23.25
2018-06-01T02:34:56.629Z,23.12
2018-06-01T02:37:25.363Z,21.80
2018-06-01T02:39:54.562Z,20.75
2018-06-01T02:42:24.364Z,22.17
2018-06-01T02:44:53.602Z,20.17
2018-06-01T02:47:22.034Z,20.35
2018-06-01T02:49:50.993Z,21.42
2018-06-01T02:52:19.378Z,21.58
2018-06-01T02:54:47.734Z,23.00
2018-06-01T02:57:16.184Z,23.70
2018-06-01T02:59:45.364Z,22.67
2018-06-01T03:02:13.800Z,22.15
2018-06-01T03:04:43.105Z,23.33
2018-06-01T03:07:12.380Z,24.83
2018-06-01T03:09:40.750Z,25.75
2018-06-01T03:12:10.009Z,25.45
2018-06-01T03:14:38.426Z,27.33
2018-06-01T03:17:07.522Z,25.08
2018-06-01T03:19:35.911Z,29.95
2018-06-01T03:22:04.276Z,27.92
2018-06-01T03:24:33.408Z,30.17
2018-06-01T03:27:01.880Z,27.90
2018-06-01T03:29:30.243Z,28.80
2018-06-01T03:31:58.620Z,31.00
2018-06-01T03:34:26.968Z,32.15
2018-06-01T03:36:55.324Z,31.12
2018-06-01T03:39:23.779Z,31.60
2018-06-01T03:41:52.163Z,30.05
2018-06-01T03:44:20.667Z,30.88
2018-06-01T03:46:49.057Z,30.70
2018-06-01T03:49:17.461Z,30.15
2018-06-01T03:51:46.602Z,29.25
2018-06-01T03:54:15.952Z,29.83
2018-06-01T03:56:44.584Z,31.98
2018-06-01T03:59:13.889Z,31.67
2018-06-01T04:01:42.239Z,31.02
2018-06-01T04:04:10.621Z,29.37
2018-06-01T04:06:38.996Z,32.95
2018-06-01T04:09:07.356Z,32.97
2018-06-01T04:11:36.478Z,32.67
2018-06-01T04:14:05.760Z,31.15
2018-06-01T04:16:34.147Z,34.70
2018-06-01T04:19:02.625Z,32.88
2018-06-01T04:21:31.004Z,33.10
2018-06-01T04:24:00.881Z,32.95
2018-06-01T04:26:30.054Z,32.42
2018-06-01T04:28:58.533Z,34.47
2018-06-01T04:31:35.761Z,34.08
2018-06-01T04:34:04.403Z,31.45
2018-06-01T04:36:32.763Z,31.23
2018-06-01T04:39:01.157Z,32.03
2018-06-01T04:41:31.112Z,31.83
2018-06-01T04:43:59.477Z,32.47
2018-06-01T04:46:27.902Z,32.40
2018-06-01T04:48:56.381Z,32.95
2018-06-01T04:51:25.265Z,33.90
2018-06-01T04:53:54.434Z,35.03
2018-06-01T04:56:22.788Z,36.22
2018-06-01T04:58:51.886Z,33.47
2018-06-01T05:01:20.246Z,37.58
2018-06-01T05:03:49.405Z,35.22
2018-06-01T05:06:18.609Z,36.70
2018-06-01T05:08:47.732Z,38.50
2018-06-01T05:11:16.468Z,40.25
2018-06-01T05:13:45.481Z,40.03
2018-06-01T05:16:14.687Z,37.92
2018-06-01T05:18:43.049Z,40.95
2018-06-01T05:21:12.163Z,40.50
2018-06-01T05:23:40.534Z,37.65
2018-06-01T05:26:09.681Z,39.85
2018-06-01T05:28:38.068Z,39.10
2018-06-01T05:31:06.435Z,40.42
2018-06-01T05:33:34.774Z,36.97
2018-06-01T05:36:03.118Z,37.45
2018-06-01T05:38:31.462Z,38.88
2018-06-01T05:40:59.832Z,39.77
2018-06-01T05:43:28.175Z,40.12
2018-06-01T05:45:58.200Z,38.15
2018-06-01T05:48:26.504Z,36.20
2018-06-01T05:50:54.850Z,35.95
2018-06-01T05:53:23.236Z,38.67
2018-06-01T05:55:52.723Z,39.10
2018-06-01T05:58:23.976Z,38.33
2018-06-01T06:00:53.315Z,38.28
2018-06-01T06:03:21.665Z,37.93
2018-06-01T06:05:51.516Z,37.47
2018-06-01T06:08:20.017Z,37.75
2018-06-01T06:10:48.489Z,36.97
2018-06-01T06:13:16.889Z,36.78
2018-06-01T06:15:46.324Z,37.25
2018-06-01T06:18:15.860Z,35.38
2018-06-01T06:20:44.193Z,35.35
2018-06-01T06:23:14.408Z,36.55
2018-06-01T06:25:44.619Z,34.13
2018-06-01T06:28:12.968Z,33.80
2018-06-01T06:30:42.145Z,35.40
2018-06-01T06:33:10.531Z,32.25
2018-06-01T06:35:39.601Z,32.92
2018-06-01T06:38:07.966Z,31.08
2018-06-01T06:40:37.127Z,35.00
2018-06-01T06:43:06.297Z,32.85
2018-06-01T06:45:35.641Z,31.10
2018-06-01T06:48:04.630Z,34.95
2018-06-01T06:50:33.052Z,35.47
2018-06-01T06:53:01.477Z,35.55
2018-06-01T06:55:29.836Z,34.53
2018-06-01T06:57:58.298Z,34.22
2018-06-01T07:00:26.628Z,32.13
2018-06-01T07:02:55.029Z,36.20
2018-06-01T07:05:24.137Z,35.72
2018-06-01T07:07:52.580Z,32.58
2018-06-01T07:10:21.115Z,33.00
2018-06-01T07:12:49.469Z,34.22
2018-06-01T07:15:18.633Z,36.47
2018-06-01T07:17:47.029Z,35.90
2018-06-01T07:20:15.416Z,32.95
2018-06-01T07:22:44.397Z,32.47
2018-06-01T07:25:12.752Z,32.15
2018-06-01T07:27:41.162Z,32.08
2018-06-01T07:30:09.576Z,30.70
2018-06-01T07:32:38.097Z,31.77
2018-06-01T07:35:06.535Z,31.52
2018-06-01T07:37:35.665Z,31.30
2018-06-01T07:40:04.821Z,31.20
2018-06-01T07:42:33.207Z,31.27
2018-06-01T07:45:01.913Z,32.15
2018-06-01T07:47:30.272Z,30.58
2018-06-01T07:49:58.873Z,31.27
2018-06-01T07:52:27.409Z,33.92
2018-06-01T07:54:56.593Z,34.78
2018-06-01T07:57:24.964Z,32.93
2018-06-01T07:59:53.356Z,33.47
2018-06-01T08:02:22.525Z,32.15
2018-06-01T08:04:51.499Z,32.55
2018-06-01T08:07:19.857Z,31.95
2018-06-01T08:09:48.280Z,31.70
2018-06-01T08:12:18.038Z,32.08
2018-06-01T08:14:47.307Z,32.70
2018-06-01T08:17:16.564Z,33.58
2018-06-01T08:19:45.222Z,34.15
2018-06-01T08:22:13.641Z,33.20
2018-06-01T08:24:42.755Z,31.80
2018-06-01T08:27:11.154Z,32.83
2018-06-01T08:29:40.314Z,32.30
2018-06-01T08:32:09.514Z,37.10
2018-06-01T08:34:37.877Z,33.83
2018-06-01T08:37:06.289Z,32.90
2018-06-01T08:39:34.777Z,34.23
2018-06-01T08:42:03.862Z,35.05
2018-06-01T08:44:32.316Z,34.00
2018-06-01T08:47:00.661Z,35.78
2018-06-01T08:49:29.071Z,36.53
2018-06-01T08:51:57.787Z,35.65
2018-06-01T08:54:26.196Z,34.77
2018-06-01T08:56:55.412Z,35.58
2018-06-01T08:59:23.898Z,36.03
2018-06-01T09:01:53.059Z,30.52
2018-06-01T09:04:21.590Z,34.78
2018-06-01T09:06:49.962Z,30.08
2018-06-01T09:09:20.322Z,24.98
2018-06-01T09:11:49.767Z,22.13
2018-06-01T09:14:19.215Z,23.35
2018-06-01T09:16:47.668Z,21.45
2018-06-01T09:19:16.059Z,21.25
2018-06-01T09:21:44.500Z,23.20
2018-06-01T09:24:13.684Z,21.77
2018-06-01T09:26:42.111Z,22.02
2018-06-01T09:29:10.460Z,18.27
2018-06-01T09:31:39.571Z,17.65
2018-06-01T09:34:09.591Z,17.80
2018-06-01T09:36:37.942Z,17.67
2018-06-01T09:39:07.139Z,17.40
2018-06-01T09:41:35.511Z,15.77
2018-06-01T09:44:05.403Z,16.23
2018-06-01T09:46:34.551Z,16.67
2018-06-01T09:49:02.917Z,17.23
2018-06-01T09:51:32.215Z,17.57
2018-06-01T09:54:01.661Z,17.05
2018-06-01T09:56:30.038Z,16.85
2018-06-01T09:58:58.375Z,17.40
2018-06-01T10:01:29.401Z,18.23
2018-06-01T10:03:59.206Z,17.00
2018-06-01T10:06:27.641Z,17.10
2018-06-01T10:08:55.979Z,16.45
2018-06-01T10:11:25.143Z,15.70
2018-06-01T10:13:53.509Z,14.05
2018-06-01T10:16:22.095Z,12.93
2018-06-01T10:18:50.464Z,13.73
2018-06-01T10:21:18.816Z,13.07
2018-06-01T10:23:47.976Z,10.82
2018-06-01T10:26:16.378Z,10.63
2018-06-01T10:28:45.547Z,9.98
2018-06-01T10:31:13.901Z,10.60
2018-06-01T10:33:42.305Z,10.40
2018-06-01T10:36:10.674Z,9.75
2018-06-01T10:38:39.899Z,10.18
2018-06-01T10:41:09.062Z,9.77
2018-06-01T10:43:37.500Z,10.77
2018-06-01T10:46:05.888Z,10.63
2018-06-01T10:48:35.274Z,11.00
2018-06-01T10:51:04.439Z,11.12
2018-06-01T10:53:33.130Z,11.85
2018-06-01T10:56:02.705Z,11.60
2018-06-01T10:58:31.346Z,14.15
2018-06-01T11:01:00.514Z,14.07
2018-06-01T11:03:28.981Z,14.90
2018-06-01T11:05:57.407Z,15.32
2018-06-01T11:08:26.538Z,14.32
2018-06-01T11:10:54.948Z,14.40
2018-06-01T11:13:24.862Z,14.73
2018-06-01T11:15:53.553Z,15.60
2018-06-01T11:18:23.249Z,15.55
2018-06-01T11:20:51.615Z,15.27
2018-06-01T11:23:21.547Z,16.80
2018-06-01T11:25:49.879Z,16.77
2018-06-01T11:28:18.237Z,17.12
2018-06-01T11:30:48.502Z,16.83
2018-06-01T11:33:17.798Z,17.33
2018-06-01T11:35:47.084Z,18.67
2018-06-01T11:38:15.568Z,17.02
2018-06-01T11:40:44.233Z,18.05
2018-06-01T11:43:14.060Z,17.98
2018-06-01T11:45:42.471Z,17.63
2018-06-01T11:48:10.811Z,17.48
2018-06-01T11:50:39.780Z,19.85
2018-06-01T11:53:08.130Z,18.60
2018-06-01T11:55:36.552Z,19.17
2018-06-01T11:58:04.916Z,19.98
2018-06-01T12:00:34.994Z,20.43
2018-06-01T12:03:03.393Z,13.43
2018-06-01T12:05:31.800Z,10.35
2018-06-01T12:08:00.905Z,10.15
2018-06-01T12:10:30.076Z,9.88
2018-06-01T12:13:00.283Z,10.65
2018-06-01T12:15:28.655Z,10.90
2018-06-01T12:17:57.043Z,11.38
2018-06-01T12:20:26.225Z,11.25
2018-06-01T12:22:54.610Z,12.25
2018-06-01T12:25:22.986Z,13.30
2018-06-01T12:27:51.450Z,13.13
2018-06-01T12:30:20.167Z,13.18
2018-06-01T12:32:48.519Z,13.48
2018-06-01T12:35:16.895Z,14.85
2018-06-01T12:37:45.356Z,15.18
2018-06-01T12:40:14.426Z,15.02
2018-06-01T12:42:44.165Z,17.20
2018-06-01T12:45:12.553Z,17.52
2018-06-01T12:47:41.003Z,15.27
2018-06-01T12:50:10.500Z,14.15
2018-06-01T12:52:39.585Z,15.27
2018-06-01T12:55:08.862Z,14.07
2018-06-01T12:57:37.219Z,13.93
2018-06-01T13:00:05.623Z,13.95
2018-06-01T13:02:34.266Z,13.82
2018-06-01T13:05:02.674Z,12.30
2018-06-01T13:07:31.475Z,11.98
2018-06-01T13:09:59.844Z,12.10
2018-06-01T13:12:29.102Z,11.25
2018-06-01T13:14:57.496Z,11.07
2018-06-01T13:17:26.719Z,11.75
2018-06-01T13:19:55.084Z,11.85
2018-06-01T13:22:24.669Z,12.60
2018-06-01T13:24:54.661Z,12.40
2018-06-01T13:27:24.760Z,11.55
2018-06-01T13:29:53.154Z,12.37
2018-06-01T13:32:21.720Z,11.75
2018-06-01T13:34:50.104Z,10.95
2018-06-01T13:37:18.440Z,11.82
2018-06-01T13:39:47.278Z,10.75
2018-06-01T13:42:18.100Z,10.68
2018-06-01T13:44:47.261Z,10.65
2018-06-01T13:47:17.377Z,10.82
2018-06-01T13:49:46.623Z,12.25
2018-06-01T13:52:16.037Z,10.85
2018-06-01T13:54:45.464Z,11.10
2018-06-01T13:57:13.831Z,10.73
2018-06-01T13:59:42.981Z,10.02
2018-06-01T14:02:11.388Z,10.88
2018-06-01T14:04:39.832Z,11.93
2018-06-01T14:07:08.260Z,12.07
2018-06-01T14:09:38.031Z,12.60
2018-06-01T14:12:07.858Z,10.82
2018-06-01T14:14:37.093Z,10.95
2018-06-01T14:17:05.455Z,11.27
2018-06-01T14:19:34.592Z,11.18
2018-06-01T14:22:03.025Z,12.57
2018-06-01T14:24:32.406Z,12.88
2018-06-01T14:27:00.911Z,13.57
2018-06-01T14:29:29.307Z,12.57
2018-06-01T14:31:58.439Z,11.95
2018-06-01T14:34:26.858Z,12.13
2018-06-01T14:36:55.326Z,12.25
2018-06-01T14:39:26.162Z,13.40
2018-06-01T14:41:54.545Z,12.65
2018-06-01T14:44:23.728Z,13.32
2018-06-01T14:46:52.924Z,14.45
2018-06-01T14:49:21.266Z,13.52
2018-06-01T14:51:49.629Z,12.88
2018-06-01T14:54:17.971Z,12.45
2018-06-01T14:56:46.440Z,11.63
2018-06-01T14:59:14.885Z,13.05
2018-06-01T15:01:43.337Z,12.43
2018-06-01T15:04:12.468Z,13.20
2018-06-01T15:06:41.660Z,11.20
2018-06-01T15:09:10.067Z,11.80
2018-06-01T15:11:41.181Z,10.38
2018-06-01T15:14:09.564Z,11.23
2018-06-01T15:16:38.299Z,10.63
2018-06-01T15:19:06.751Z,10.90
2018-06-01T15:21:35.201Z,9.87
2018-06-01T15:24:04.317Z,10.32
2018-06-01T15:26:32.725Z,9.43
2018-06-01T15:29:01.767Z,10.05
2018-06-01T15:31:30.912Z,10.07
2018-06-01T15:34:00.050Z,9.63
2018-06-01T15:36:30.390Z,9.45
2018-06-01T15:38:58.741Z,9.18
2018-06-01T15:41:28.051Z,9.00
2018-06-01T15:43:58.072Z,8.32
2018-06-01T15:46:27.018Z,8.60
2018-06-01T15:48:56.194Z,8.13
2018-06-01T15:51:25.607Z,8.10
2018-06-01T15:53:54.935Z,7.32
2018-06-01T15:56:24.546Z,8.07
2018-06-01T15:58:53.045Z,7.85
2018-06-01T16:01:21.841Z,8.32
2018-06-01T16:03:50.985Z,7.82
2018-06-01T16:06:19.389Z,8.50
2018-06-01T16:08:48.421Z,7.37
2018-06-01T16:11:18.226Z,7.57
2018-06-01T16:13:47.320Z,8.17
2018-06-01T16:16:17.200Z,7.70
2018-06-01T16:18:45.547Z,7.43
2018-06-01T16:21:14.674Z,8.63
2018-06-01T16:23:43.059Z,7.62
2018-06-01T16:26:12.212Z,7.37
2018-06-01T16:28:41.005Z,7.53
2018-06-01T16:31:09.654Z,7.20
2018-06-01T16:33:39.284Z,8.23
2018-06-01T16:36:07.700Z,8.65
2018-06-01T16:38:36.099Z,7.82
2018-06-01T16:41:05.041Z,8.40
2018-06-01T16:43:33.530Z,8.10
2018-06-01T16:46:01.897Z,8.88
2018-06-01T16:48:31.536Z,8.62
2018-06-01T16:50:59.913Z,13.68
2018-06-01T16:53:28.276Z,11.60
2018-06-01T16:55:57.490Z,8.73
2018-06-01T16:58:26.699Z,8.07
2018-06-01T17:00:55.075Z,8.80
2018-06-01T17:03:23.515Z,8.80
2018-06-01T17:05:52.783Z,8.55
2018-06-01T17:08:21.267Z,8.93
2018-06-01T17:10:51.471Z,9.88
2018-06-01T17:13:19.856Z,9.60
2018-06-01T17:15:48.245Z,9.50
2018-06-01T17:18:18.041Z,9.10
2018-06-01T17:20:46.425Z,9.27
2018-06-01T17:23:14.941Z,9.88
2018-06-01T17:25:44.164Z,8.40
2018-06-01T17:28:14.343Z,8.65
2018-06-01T17:30:43.483Z,7.47
2018-06-01T17:33:11.922Z,8.00
2018-06-01T17:35:41.036Z,9.43
2018-06-01T17:38:10.207Z,9.05
2018-06-01T17:40:39.482Z,9.35
2018-06-01T17:43:08.737Z,7.70
2018-06-01T17:45:37.146Z,8.65
2018-06-01T17:48:06.883Z,12.25
2018-06-01T17:50:35.314Z,9.52
2018-06-01T17:53:05.244Z,8.90
2018-06-01T17:55:34.653Z,9.23
2018-06-01T17:58:03.136Z,8.18
2018-06-01T18:00:34.065Z,8.18
2018-06-01T18:03:02.559Z,7.85
2018-06-01T18:05:30.904Z,8.73
2018-06-01T18:07:59.287Z,8.88
2018-06-01T18:10:28.114Z,10.32
2018-06-01T18:12:56.542Z,10.05
2018-06-01T18:15:25.707Z,9.93
2018-06-01T18:17:54.335Z,9.75
2018-06-01T18:20:23.769Z,9.70
2018-06-01T18:22:52.130Z,9.65
2018-06-01T18:25:20.518Z,10.00
2018-06-01T18:27:48.864Z,9.53
2018-06-01T18:30:18.023Z,9.07
2018-06-01T18:32:47.612Z,8.27
2018-06-01T18:35:16.869Z,9.30
2018-06-01T18:37:45.342Z,9.75
2018-06-01T18:40:15.052Z,8.70
2018-06-01T18:42:43.427Z,9.77
2018-06-01T18:45:12.652Z,9.07
2018-06-01T18:47:42.128Z,8.85
2018-06-01T18:50:11.301Z,8.88
2018-06-01T18:52:39.647Z,8.93
2018-06-01T18:55:08.860Z,9.02
2018-06-01T18:57:37.245Z,9.27
2018-06-01T19:00:06.003Z,9.38
2018-06-01T19:02:34.417Z,10.68
2018-06-01T19:05:03.979Z,9.73
2018-06-01T19:07:33.365Z,10.02
2018-06-01T19:10:01.735Z,10.38
2018-06-01T19:12:31.506Z,9.75
2018-06-01T19:14:59.865Z,11.68
2018-06-01T19:17:29.262Z,11.02
2018-06-01T19:19:58.253Z,12.30
2018-06-01T19:22:26.952Z,10.68
2018-06-01T19:24:59.273Z,11.85
2018-06-01T19:27:28.480Z,11.70
2018-06-01T19:29:57.942Z,12.40
2018-06-01T19:32:26.405Z,12.70
2018-06-01T19:34:55.181Z,13.52
2018-06-01T19:37:23.798Z,11.98
2018-06-01T19:39:52.205Z,12.65
2018-06-01T19:42:21.518Z,13.90
2018-06-01T19:44:49.878Z,13.13
2018-06-01T19:47:19.108Z,13.27
2018-06-01T19:49:48.383Z,14.07
2018-06-01T19:52:18.411Z,14.20
2018-06-01T19:54:46.928Z,13.33
2018-06-01T19:57:15.308Z,13.27
2018-06-01T19:59:43.783Z,14.10
2018-06-01T20:02:12.253Z,13.35
2018-06-01T20:04:40.603Z,13.60
2018-06-01T20:07:09.749Z,14.70
2018-06-01T20:09:38.173Z,14.40
2018-06-01T20:12:07.355Z,13.60
2018-06-01T20:14:35.746Z,15.00
2018-06-01T20:17:04.906Z,14.35
2018-06-01T20:19:33.269Z,14.15
2018-06-01T20:22:02.591Z,14.90
2018-06-01T20:24:31.111Z,14.45
2018-06-01T20:27:00.265Z,14.13
2018-06-01T20:29:28.640Z,14.93
2018-06-01T20:31:57.034Z,14.63
2018-06-01T20:34:25.754Z,14.98
2018-06-01T20:36:54.927Z,14.10
2018-06-01T20:39:23.273Z,16.62
2018-06-01T20:41:51.654Z,16.00
2018-06-01T20:44:20.235Z,17.98
2018-06-01T20:46:49.616Z,18.67
2018-06-01T20:49:17.965Z,18.63
2018-06-01T20:51:47.125Z,17.03
2018-06-01T20:54:15.512Z,18.62
2018-06-01T20:56:44.943Z,17.33
2018-06-01T20:59:13.508Z,17.42
2018-06-01T21:01:41.965Z,17.37
2018-06-01T21:04:11.134Z,16.90
2018-06-01T21:06:39.942Z,18.02
2018-06-01T21:09:09.368Z,17.27
2018-06-01T21:11:37.774Z,16.08
2018-06-01T21:14:06.958Z,17.02
2018-06-01T21:16:36.898Z,15.77
2018-06-01T21:19:05.285Z,16.55
2018-06-01T21:21:33.748Z,15.68
2018-06-01T21:24:03.014Z,17.10
2018-06-01T21:26:31.403Z,21.15
2018-06-01T21:29:00.073Z,20.50
2018-06-01T21:31:29.887Z,17.55
2018-06-01T21:33:58.631Z,18.65
2018-06-01T21:36:28.363Z,16.77
2018-06-01T21:38:56.792Z,17.55
2018-06-01T21:41:25.269Z,18.95
2018-06-01T21:43:54.411Z,17.90
2018-06-01T21:46:22.818Z,16.70
2018-06-01T21:48:51.205Z,16.50
2018-06-01T21:51:19.780Z,16.92
2018-06-01T21:53:48.243Z,17.48
2018-06-01T21:56:16.604Z,17.70
2018-06-01T21:58:45.079Z,15.80
2018-06-01T22:01:13.495Z,15.98
2018-06-01T22:03:41.881Z,17.65
2018-06-01T22:06:10.607Z,18.17
2018-06-01T22:08:41.143Z,17.48
2018-06-01T22:11:10.301Z,19.87
2018-06-01T22:13:38.680Z,18.90
2018-06-01T22:16:07.965Z,17.83
2018-06-01T22:18:36.367Z,19.48
2018-06-01T22:21:04.725Z,19.37
2018-06-01T22:23:33.965Z,19.25
2018-06-01T22:26:03.597Z,18.30
2018-06-01T22:28:33.400Z,19.83
2018-06-01T22:31:01.810Z,19.33
2018-06-01T22:33:30.222Z,22.07
2018-06-01T22:35:58.678Z,20.25
2018-06-01T22:38:27.169Z,21.07
2018-06-01T22:40:55.655Z,20.95
2018-06-01T22:43:24.056Z,20.98
2018-06-01T22:45:52.417Z,20.97
2018-06-01T22:48:20.776Z,20.63
2018-06-01T22:50:49.416Z,23.20
2018-06-01T22:53:19.080Z,22.93
2018-06-01T22:55:48.227Z,23.27
2018-06-01T22:58:18.483Z,23.08
2018-06-01T23:00:46.854Z,22.90
2018-06-01T23:03:15.204Z,23.00
2018-06-01T23:05:44.305Z,24.00
2018-06-01T23:08:13.741Z,24.55
2018-06-01T23:10:42.143Z,26.27
2018-06-01T23:13:10.497Z,24.67
2018-06-01T23:15:38.867Z,25.07
2018-06-01T23:18:07.561Z,24.37
2018-06-01T23:20:35.927Z,25.33
2018-06-01T23:23:05.133Z,24.87
2018-06-01T23:25:33.544Z,24.33
2018-06-01T23:28:03.564Z,24.35
2018-06-01T23:30:32.014Z,20.05
2018-06-01T23:33:02.970Z,22.37
2018-06-01T23:35:31.535Z,23.03
2018-06-01T23:38:01.096Z,22.50
2018-06-01T23:40:31.228Z,20.12
2018-06-01T23:43:00.268Z,19.17
2018-06-01T23:45:29.257Z,21.70
2018-06-01T23:47:57.684Z,22.92
2018-06-01T23:50:30.285Z,23.67
2018-06-01T23:53:01.275Z,22.77
2018-06-01T23:55:30.721Z,22.02
2018-06-01T23:57:59.896Z,22.07
